sensor_id;sensor_type;location;lat;lon;timestamp;P1;durP1;ratioP1;P2;durP2;ratioP2
46014;SDS011;36844;51.898;-0.874;2024-02-15T00:01:30;2.03;;;0.35;;
46014;SDS011;36844;51.898;-0.874;2024-02-15T00:03:56;0.30;;;0.20;;
46014;SDS011;36844;51.898;-0.874;2024-02-15T00:06:22;0.32;;;0.17;;
46014;SDS011;36844;51.898;-0.874;2024-02-15T00:08:47;0.55;;;0.22;;
46014;SDS011;36844;51.898;-0.874;2024-02-15T00:11:13;0.30;;;0.20;;
46014;SDS011;36844;51.898;-0.874;2024-02-15T00:13:38;1.33;;;0.73;;
46014;SDS011;36844;51.898;-0.874;2024-02-15T00:16:04;0.45;;;0.38;;
46014;SDS011;36844;51.898;-0.874;2024-02-15T00:18:31;0.50;;;0.15;;
46014;SDS011;36844;51.898;-0.874;2024-02-15T00:20:56;0.47;;;0.20;;
46014;SDS011;36844;51.898;-0.874;2024-02-15T00:23:22;0.20;;;0.20;;
46014;SDS011;36844;51.898;-0.874;2024-02-15T00:25:47;3.60;;;0.30;;
46014;SDS011;36844;51.898;-0.874;2024-02-15T00:28:12;0.20;;;0.20;;
46014;SDS011;36844;51.898;-0.874;2024-02-15T00:30:38;0.75;;;0.20;;
46014;SDS011;36844;51.898;-0.874;2024-02-15T00:33:03;1.08;;;0.22;;
46014;SDS011;36844;51.898;-0.874;2024-02-15T00:35:29;0.13;;;0.10;;
46014;SDS011;36844;51.898;-0.874;2024-02-15T00:37:54;0.25;;;0.25;;
46014;SDS011;36844;51.898;-0.874;2024-02-15T00:40:19;0.45;;;0.20;;
46014;SDS011;36844;51.898;-0.874;2024-02-15T00:42:46;0.35;;;0.13;;
46014;SDS011;36844;51.898;-0.874;2024-02-15T00:45:11;0.40;;;0.32;;
46014;SDS011;36844;51.898;-0.874;2024-02-15T00:47:37;0.30;;;0.30;;
46014;SDS011;36844;51.898;-0.874;2024-02-15T00:50:07;0.20;;;0.20;;
46014;SDS011;36844;51.898;-0.874;2024-02-15T00:52:33;0.60;;;0.38;;
46014;SDS011;36844;51.898;-0.874;2024-02-15T00:54:59;0.03;;;0.03;;
46014;SDS011;36844;51.898;-0.874;2024-02-15T00:57:24;0.65;;;0.30;;
46014;SDS011;36844;51.898;-0.874;2024-02-15T00:59:50;0.10;;;0.10;;
46014;SDS011;36844;51.898;-0.874;2024-02-15T01:02:16;0.20;;;0.20;;
46014;SDS011;36844;51.898;-0.874;2024-02-15T01:04:42;0.45;;;0.35;;
46014;SDS011;36844;51.898;-0.874;2024-02-15T01:07:10;0.35;;;0.20;;
46014;SDS011;36844;51.898;-0.874;2024-02-15T01:09:35;0.20;;;0.20;;
46014;SDS011;36844;51.898;-0.874;2024-02-15T01:12:01;0.13;;;0.10;;
46014;SDS011;36844;51.898;-0.874;2024-02-15T01:14:29;0.20;;;0.20;;
46014;SDS011;36844;51.898;-0.874;2024-02-15T01:16:55;0.30;;;0.10;;
46014;SDS011;36844;51.898;-0.874;2024-02-15T01:19:21;0.10;;;0.10;;
46014;SDS011;36844;51.898;-0.874;2024-02-15T01:21:46;0.17;;;0.10;;
46014;SDS011;36844;51.898;-0.874;2024-02-15T01:24:11;0.20;;;0.10;;
46014;SDS011;36844;51.898;-0.874;2024-02-15T01:26:37;0.10;;;0.10;;
46014;SDS011;36844;51.898;-0.874;2024-02-15T01:29:02;0.50;;;0.20;;
46014;SDS011;36844;51.898;-0.874;2024-02-15T01:31:28;0.10;;;0.05;;
46014;SDS011;36844;51.898;-0.874;2024-02-15T01:33:53;0.68;;;0.30;;
46014;SDS011;36844;51.898;-0.874;2024-02-15T01:36:19;0.10;;;0.10;;
46014;SDS011;36844;51.898;-0.874;2024-02-15T01:38:44;0.35;;;0.22;;
46014;SDS011;36844;51.898;-0.874;2024-02-15T01:41:10;0.10;;;0.03;;
46014;SDS011;36844;51.898;-0.874;2024-02-15T01:43:35;0.30;;;0.20;;
46014;SDS011;36844;51.898;-0.874;2024-02-15T01:46:01;0.20;;;0.20;;
46014;SDS011;36844;51.898;-0.874;2024-02-15T01:48:37;0.30;;;0.30;;
46014;SDS011;36844;51.898;-0.874;2024-02-15T01:51:05;0.20;;;0.20;;
46014;SDS011;36844;51.898;-0.874;2024-02-15T01:53:31;0.65;;;0.65;;
46014;SDS011;36844;51.898;-0.874;2024-02-15T01:55:57;0.13;;;0.10;;
46014;SDS011;36844;51.898;-0.874;2024-02-15T01:58:25;0.20;;;0.10;;
46014;SDS011;36844;51.898;-0.874;2024-02-15T02:00:51;0.43;;;0.38;;
46014;SDS011;36844;51.898;-0.874;2024-02-15T02:03:18;0.10;;;0.10;;
46014;SDS011;36844;51.898;-0.874;2024-02-15T02:05:46;0.20;;;0.20;;
46014;SDS011;36844;51.898;-0.874;2024-02-15T02:08:11;0.10;;;0.10;;
46014;SDS011;36844;51.898;-0.874;2024-02-15T02:10:37;0.65;;;0.40;;
46014;SDS011;36844;51.898;-0.874;2024-02-15T02:13:03;0.20;;;0.20;;
46014;SDS011;36844;51.898;-0.874;2024-02-15T02:15:28;0.28;;;0.28;;
46014;SDS011;36844;51.898;-0.874;2024-02-15T02:17:56;0.10;;;0.10;;
46014;SDS011;36844;51.898;-0.874;2024-02-15T02:20:23;0.40;;;0.30;;
46014;SDS011;36844;51.898;-0.874;2024-02-15T02:22:49;0.25;;;0.20;;
46014;SDS011;36844;51.898;-0.874;2024-02-15T02:25:16;0.10;;;0.10;;
46014;SDS011;36844;51.898;-0.874;2024-02-15T02:27:41;0.10;;;0.10;;
46014;SDS011;36844;51.898;-0.874;2024-02-15T02:30:13;0.10;;;0.10;;
46014;SDS011;36844;51.898;-0.874;2024-02-15T02:32:43;0.40;;;0.20;;
46014;SDS011;36844;51.898;-0.874;2024-02-15T02:35:09;0.10;;;0.00;;
46014;SDS011;36844;51.898;-0.874;2024-02-15T02:37:40;0.10;;;0.10;;
46014;SDS011;36844;51.898;-0.874;2024-02-15T02:40:06;0.10;;;0.10;;
46014;SDS011;36844;51.898;-0.874;2024-02-15T02:42:33;0.10;;;0.10;;
46014;SDS011;36844;51.898;-0.874;2024-02-15T02:45:00;0.10;;;0.10;;
46014;SDS011;36844;51.898;-0.874;2024-02-15T02:47:26;1.20;;;0.30;;
46014;SDS011;36844;51.898;-0.874;2024-02-15T02:49:51;0.20;;;0.20;;
46014;SDS011;36844;51.898;-0.874;2024-02-15T02:52:16;0.10;;;0.10;;
46014;SDS011;36844;51.898;-0.874;2024-02-15T02:54:42;0.20;;;0.17;;
46014;SDS011;36844;51.898;-0.874;2024-02-15T02:57:07;0.20;;;0.10;;
46014;SDS011;36844;51.898;-0.874;2024-02-15T02:59:33;0.22;;;0.20;;
46014;SDS011;36844;51.898;-0.874;2024-02-15T03:02:00;0.10;;;0.10;;
46014;SDS011;36844;51.898;-0.874;2024-02-15T03:04:25;0.10;;;0.10;;
46014;SDS011;36844;51.898;-0.874;2024-02-15T03:06:51;0.10;;;0.10;;
46014;SDS011;36844;51.898;-0.874;2024-02-15T03:09:18;0.38;;;0.22;;
46014;SDS011;36844;51.898;-0.874;2024-02-15T03:11:45;0.40;;;0.17;;
46014;SDS011;36844;51.898;-0.874;2024-02-15T03:14:10;0.10;;;0.10;;
46014;SDS011;36844;51.898;-0.874;2024-02-15T03:16:38;0.20;;;0.10;;
46014;SDS011;36844;51.898;-0.874;2024-02-15T03:19:03;0.22;;;0.20;;
46014;SDS011;36844;51.898;-0.874;2024-02-15T03:21:29;0.10;;;0.10;;
46014;SDS011;36844;51.898;-0.874;2024-02-15T03:23:55;0.20;;;0.10;;
46014;SDS011;36844;51.898;-0.874;2024-02-15T03:26:30;0.03;;;0.03;;
46014;SDS011;36844;51.898;-0.874;2024-02-15T03:28:58;0.20;;;0.08;;
46014;SDS011;36844;51.898;-0.874;2024-02-15T03:31:24;0.32;;;0.10;;
46014;SDS011;36844;51.898;-0.874;2024-02-15T03:33:49;0.10;;;0.10;;
46014;SDS011;36844;51.898;-0.874;2024-02-15T03:36:15;0.00;;;0.00;;
46014;SDS011;36844;51.898;-0.874;2024-02-15T03:38:43;0.20;;;0.15;;
46014;SDS011;36844;51.898;-0.874;2024-02-15T03:41:09;0.47;;;0.10;;
46014;SDS011;36844;51.898;-0.874;2024-02-15T03:43:35;0.28;;;0.28;;
46014;SDS011;36844;51.898;-0.874;2024-02-15T03:46:00;0.10;;;0.10;;
46014;SDS011;36844;51.898;-0.874;2024-02-15T03:48:25;0.10;;;0.10;;
46014;SDS011;36844;51.898;-0.874;2024-02-15T03:50:51;0.20;;;0.17;;
46014;SDS011;36844;51.898;-0.874;2024-02-15T03:53:16;0.10;;;0.10;;
46014;SDS011;36844;51.898;-0.874;2024-02-15T03:55:41;0.15;;;0.10;;
46014;SDS011;36844;51.898;-0.874;2024-02-15T03:58:07;0.28;;;0.20;;
46014;SDS011;36844;51.898;-0.874;2024-02-15T04:00:33;1.38;;;0.30;;
46014;SDS011;36844;51.898;-0.874;2024-02-15T04:02:59;0.00;;;0.00;;
46014;SDS011;36844;51.898;-0.874;2024-02-15T04:05:25;0.43;;;0.05;;
46014;SDS011;36844;51.898;-0.874;2024-02-15T04:07:51;0.20;;;0.20;;
46014;SDS011;36844;51.898;-0.874;2024-02-15T04:10:18;0.60;;;0.28;;
46014;SDS011;36844;51.898;-0.874;2024-02-15T04:12:43;0.00;;;0.00;;
46014;SDS011;36844;51.898;-0.874;2024-02-15T04:15:09;0.10;;;0.10;;
46014;SDS011;36844;51.898;-0.874;2024-02-15T04:17:39;0.30;;;0.30;;
46014;SDS011;36844;51.898;-0.874;2024-02-15T04:20:05;0.52;;;0.38;;
46014;SDS011;36844;51.898;-0.874;2024-02-15T04:22:32;0.52;;;0.17;;
46014;SDS011;36844;51.898;-0.874;2024-02-15T04:25:01;0.73;;;0.20;;
46014;SDS011;36844;51.898;-0.874;2024-02-15T04:27:27;0.20;;;0.13;;
46014;SDS011;36844;51.898;-0.874;2024-02-15T04:29:52;0.20;;;0.10;;
46014;SDS011;36844;51.898;-0.874;2024-02-15T04:32:18;0.10;;;0.10;;
46014;SDS011;36844;51.898;-0.874;2024-02-15T04:34:44;0.43;;;0.20;;
46014;SDS011;36844;51.898;-0.874;2024-02-15T04:37:11;0.10;;;0.10;;
46014;SDS011;36844;51.898;-0.874;2024-02-15T04:39:38;0.17;;;0.10;;
46014;SDS011;36844;51.898;-0.874;2024-02-15T04:42:04;0.20;;;0.10;;
46014;SDS011;36844;51.898;-0.874;2024-02-15T04:44:31;0.00;;;0.00;;
46014;SDS011;36844;51.898;-0.874;2024-02-15T04:47:00;0.05;;;0.05;;
46014;SDS011;36844;51.898;-0.874;2024-02-15T04:49:25;0.10;;;0.10;;
46014;SDS011;36844;51.898;-0.874;2024-02-15T04:51:52;0.13;;;0.13;;
46014;SDS011;36844;51.898;-0.874;2024-02-15T04:54:17;0.10;;;0.10;;
46014;SDS011;36844;51.898;-0.874;2024-02-15T04:56:43;0.10;;;0.10;;
46014;SDS011;36844;51.898;-0.874;2024-02-15T04:59:11;0.10;;;0.10;;
46014;SDS011;36844;51.898;-0.874;2024-02-15T05:01:40;0.13;;;0.13;;
46014;SDS011;36844;51.898;-0.874;2024-02-15T05:04:08;0.17;;;0.17;;
46014;SDS011;36844;51.898;-0.874;2024-02-15T05:06:34;0.10;;;0.10;;
46014;SDS011;36844;51.898;-0.874;2024-02-15T05:09:01;0.13;;;0.10;;
46014;SDS011;36844;51.898;-0.874;2024-02-15T05:11:32;0.45;;;0.13;;
46014;SDS011;36844;51.898;-0.874;2024-02-15T05:14:00;0.43;;;0.17;;
46014;SDS011;36844;51.898;-0.874;2024-02-15T05:16:26;0.15;;;0.10;;
46014;SDS011;36844;51.898;-0.874;2024-02-15T05:18:51;0.10;;;0.10;;
46014;SDS011;36844;51.898;-0.874;2024-02-15T05:21:18;0.10;;;0.10;;
46014;SDS011;36844;51.898;-0.874;2024-02-15T05:23:44;0.03;;;0.03;;
46014;SDS011;36844;51.898;-0.874;2024-02-15T05:26:10;0.10;;;0.10;;
46014;SDS011;36844;51.898;-0.874;2024-02-15T05:28:37;0.45;;;0.38;;
46014;SDS011;36844;51.898;-0.874;2024-02-15T05:33:42;0.10;;;0.10;;
46014;SDS011;36844;51.898;-0.874;2024-02-15T05:36:18;0.00;;;0.00;;
46014;SDS011;36844;51.898;-0.874;2024-02-15T05:38:45;0.10;;;0.10;;
46014;SDS011;36844;51.898;-0.874;2024-02-15T05:41:11;0.10;;;0.10;;
46014;SDS011;36844;51.898;-0.874;2024-02-15T05:43:38;0.17;;;0.10;;
46014;SDS011;36844;51.898;-0.874;2024-02-15T05:46:04;0.00;;;0.00;;
46014;SDS011;36844;51.898;-0.874;2024-02-15T05:48:31;0.03;;;0.03;;
46014;SDS011;36844;51.898;-0.874;2024-02-15T05:51:00;0.10;;;0.10;;
46014;SDS011;36844;51.898;-0.874;2024-02-15T05:53:29;0.20;;;0.10;;
46014;SDS011;36844;51.898;-0.874;2024-02-15T05:55:57;0.22;;;0.10;;
46014;SDS011;36844;51.898;-0.874;2024-02-15T05:58:23;0.20;;;0.20;;
46014;SDS011;36844;51.898;-0.874;2024-02-15T06:00:49;0.10;;;0.10;;
46014;SDS011;36844;51.898;-0.874;2024-02-15T06:03:15;0.20;;;0.20;;
46014;SDS011;36844;51.898;-0.874;2024-02-15T06:05:41;0.00;;;0.00;;
46014;SDS011;36844;51.898;-0.874;2024-02-15T06:08:07;0.13;;;0.13;;
46014;SDS011;36844;51.898;-0.874;2024-02-15T06:10:33;0.20;;;0.15;;
46014;SDS011;36844;51.898;-0.874;2024-02-15T06:12:58;0.22;;;0.22;;
46014;SDS011;36844;51.898;-0.874;2024-02-15T06:15:24;0.08;;;0.08;;
46014;SDS011;36844;51.898;-0.874;2024-02-15T06:17:50;0.10;;;0.10;;
46014;SDS011;36844;51.898;-0.874;2024-02-15T06:20:15;0.10;;;0.10;;
46014;SDS011;36844;51.898;-0.874;2024-02-15T06:22:43;0.20;;;0.20;;
46014;SDS011;36844;51.898;-0.874;2024-02-15T06:25:09;0.20;;;0.10;;
46014;SDS011;36844;51.898;-0.874;2024-02-15T06:27:36;0.10;;;0.10;;
46014;SDS011;36844;51.898;-0.874;2024-02-15T06:30:10;0.17;;;0.17;;
46014;SDS011;36844;51.898;-0.874;2024-02-15T06:32:56;0.05;;;0.05;;
46014;SDS011;36844;51.898;-0.874;2024-02-15T06:35:41;0.20;;;0.10;;
46014;SDS011;36844;51.898;-0.874;2024-02-15T06:38:25;0.10;;;0.10;;
46014;SDS011;36844;51.898;-0.874;2024-02-15T06:41:08;0.20;;;0.20;;
46014;SDS011;36844;51.898;-0.874;2024-02-15T06:43:34;0.52;;;0.30;;
46014;SDS011;36844;51.898;-0.874;2024-02-15T06:46:00;0.10;;;0.10;;
46014;SDS011;36844;51.898;-0.874;2024-02-15T06:48:26;0.30;;;0.25;;
46014;SDS011;36844;51.898;-0.874;2024-02-15T06:50:52;0.63;;;0.38;;
46014;SDS011;36844;51.898;-0.874;2024-02-15T06:53:17;0.32;;;0.20;;
46014;SDS011;36844;51.898;-0.874;2024-02-15T06:55:45;0.20;;;0.20;;
46014;SDS011;36844;51.898;-0.874;2024-02-15T06:58:13;0.57;;;0.10;;
46014;SDS011;36844;51.898;-0.874;2024-02-15T07:00:40;0.22;;;0.22;;
46014;SDS011;36844;51.898;-0.874;2024-02-15T07:03:07;0.20;;;0.10;;
46014;SDS011;36844;51.898;-0.874;2024-02-15T07:05:33;0.63;;;0.20;;
46014;SDS011;36844;51.898;-0.874;2024-02-15T07:07:58;0.10;;;0.10;;
46014;SDS011;36844;51.898;-0.874;2024-02-15T07:10:24;0.52;;;0.10;;
46014;SDS011;36844;51.898;-0.874;2024-02-15T07:12:49;0.38;;;0.17;;
46014;SDS011;36844;51.898;-0.874;2024-02-15T07:15:15;0.10;;;0.10;;
46014;SDS011;36844;51.898;-0.874;2024-02-15T07:17:41;0.73;;;0.20;;
46014;SDS011;36844;51.898;-0.874;2024-02-15T07:20:07;0.30;;;0.30;;
46014;SDS011;36844;51.898;-0.874;2024-02-15T07:22:35;0.95;;;0.32;;
46014;SDS011;36844;51.898;-0.874;2024-02-15T07:25:02;0.20;;;0.10;;
46014;SDS011;36844;51.898;-0.874;2024-02-15T07:27:28;0.13;;;0.10;;
46014;SDS011;36844;51.898;-0.874;2024-02-15T07:29:53;0.55;;;0.13;;
46014;SDS011;36844;51.898;-0.874;2024-02-15T07:32:19;0.13;;;0.13;;
46014;SDS011;36844;51.898;-0.874;2024-02-15T07:34:45;0.75;;;0.10;;
46014;SDS011;36844;51.898;-0.874;2024-02-15T07:37:12;0.20;;;0.20;;
46014;SDS011;36844;51.898;-0.874;2024-02-15T07:39:38;0.22;;;0.22;;
46014;SDS011;36844;51.898;-0.874;2024-02-15T07:42:05;0.13;;;0.13;;
46014;SDS011;36844;51.898;-0.874;2024-02-15T07:44:31;0.40;;;0.20;;
46014;SDS011;36844;51.898;-0.874;2024-02-15T07:47:00;0.52;;;0.38;;
46014;SDS011;36844;51.898;-0.874;2024-02-15T07:49:26;0.43;;;0.32;;
46014;SDS011;36844;51.898;-0.874;2024-02-15T07:51:51;0.57;;;0.10;;
46014;SDS011;36844;51.898;-0.874;2024-02-15T07:54:21;0.25;;;0.20;;
46014;SDS011;36844;51.898;-0.874;2024-02-15T07:56:46;0.20;;;0.10;;
46014;SDS011;36844;51.898;-0.874;2024-02-15T07:59:13;1.50;;;0.82;;
46014;SDS011;36844;51.898;-0.874;2024-02-15T08:01:42;2.28;;;0.60;;
46014;SDS011;36844;51.898;-0.874;2024-02-15T08:04:12;2.72;;;0.90;;
46014;SDS011;36844;51.898;-0.874;2024-02-15T08:06:38;2.97;;;0.93;;
46014;SDS011;36844;51.898;-0.874;2024-02-15T08:09:03;1.77;;;0.55;;
46014;SDS011;36844;51.898;-0.874;2024-02-15T08:11:32;4.22;;;0.88;;
46014;SDS011;36844;51.898;-0.874;2024-02-15T08:13:57;3.10;;;1.00;;
46014;SDS011;36844;51.898;-0.874;2024-02-15T08:16:24;7.38;;;1.42;;
46014;SDS011;36844;51.898;-0.874;2024-02-15T08:18:53;4.97;;;1.45;;
46014;SDS011;36844;51.898;-0.874;2024-02-15T08:21:28;4.25;;;0.95;;
46014;SDS011;36844;51.898;-0.874;2024-02-15T08:23:55;2.63;;;1.05;;
46014;SDS011;36844;51.898;-0.874;2024-02-15T08:26:21;6.10;;;1.40;;
46014;SDS011;36844;51.898;-0.874;2024-02-15T08:28:47;3.65;;;1.40;;
46014;SDS011;36844;51.898;-0.874;2024-02-15T08:31:12;7.95;;;1.40;;
46014;SDS011;36844;51.898;-0.874;2024-02-15T08:33:40;2.72;;;1.23;;
46014;SDS011;36844;51.898;-0.874;2024-02-15T08:36:09;4.38;;;1.25;;
46014;SDS011;36844;51.898;-0.874;2024-02-15T08:38:35;6.05;;;1.83;;
46014;SDS011;36844;51.898;-0.874;2024-02-15T08:41:02;2.20;;;1.27;;
46014;SDS011;36844;51.898;-0.874;2024-02-15T08:43:29;4.20;;;2.03;;
46014;SDS011;36844;51.898;-0.874;2024-02-15T08:45:57;5.35;;;2.25;;
46014;SDS011;36844;51.898;-0.874;2024-02-15T08:48:23;7.28;;;1.90;;
46014;SDS011;36844;51.898;-0.874;2024-02-15T08:50:48;5.78;;;1.42;;
46014;SDS011;36844;51.898;-0.874;2024-02-15T08:53:14;3.33;;;1.67;;
46014;SDS011;36844;51.898;-0.874;2024-02-15T08:55:40;4.63;;;1.77;;
46014;SDS011;36844;51.898;-0.874;2024-02-15T08:58:05;3.80;;;1.70;;
46014;SDS011;36844;51.898;-0.874;2024-02-15T09:00:31;6.95;;;2.22;;
46014;SDS011;36844;51.898;-0.874;2024-02-15T09:02:56;9.85;;;1.92;;
46014;SDS011;36844;51.898;-0.874;2024-02-15T09:05:22;6.72;;;2.05;;
46014;SDS011;36844;51.898;-0.874;2024-02-15T09:07:47;5.32;;;2.45;;
46014;SDS011;36844;51.898;-0.874;2024-02-15T09:10:13;5.93;;;2.58;;
46014;SDS011;36844;51.898;-0.874;2024-02-15T09:12:40;5.68;;;1.90;;
46014;SDS011;36844;51.898;-0.874;2024-02-15T09:15:07;5.32;;;1.80;;
46014;SDS011;36844;51.898;-0.874;2024-02-15T09:17:33;4.78;;;1.83;;
46014;SDS011;36844;51.898;-0.874;2024-02-15T09:20:04;5.93;;;1.80;;
46014;SDS011;36844;51.898;-0.874;2024-02-15T09:22:43;4.63;;;2.00;;
46014;SDS011;36844;51.898;-0.874;2024-02-15T09:25:11;2.70;;;1.80;;
46014;SDS011;36844;51.898;-0.874;2024-02-15T09:27:38;9.13;;;2.58;;
46014;SDS011;36844;51.898;-0.874;2024-02-15T09:30:03;6.13;;;1.98;;
46014;SDS011;36844;51.898;-0.874;2024-02-15T09:32:32;4.57;;;1.90;;
46014;SDS011;36844;51.898;-0.874;2024-02-15T09:34:59;4.10;;;1.67;;
46014;SDS011;36844;51.898;-0.874;2024-02-15T09:37:25;5.13;;;2.30;;
46014;SDS011;36844;51.898;-0.874;2024-02-15T09:39:53;4.85;;;1.98;;
46014;SDS011;36844;51.898;-0.874;2024-02-15T09:42:18;4.72;;;1.60;;
46014;SDS011;36844;51.898;-0.874;2024-02-15T09:44:43;3.90;;;1.58;;
46014;SDS011;36844;51.898;-0.874;2024-02-15T09:47:09;5.07;;;1.60;;
46014;SDS011;36844;51.898;-0.874;2024-02-15T09:49:38;7.15;;;1.67;;
46014;SDS011;36844;51.898;-0.874;2024-02-15T09:52:07;5.57;;;1.50;;
46014;SDS011;36844;51.898;-0.874;2024-02-15T09:54:41;4.78;;;1.60;;
46014;SDS011;36844;51.898;-0.874;2024-02-15T09:57:10;3.53;;;1.60;;
46014;SDS011;36844;51.898;-0.874;2024-02-15T09:59:36;4.07;;;1.42;;
46014;SDS011;36844;51.898;-0.874;2024-02-15T10:02:02;6.90;;;2.20;;
46014;SDS011;36844;51.898;-0.874;2024-02-15T10:04:28;4.18;;;1.95;;
46014;SDS011;36844;51.898;-0.874;2024-02-15T10:06:53;3.72;;;1.40;;
46014;SDS011;36844;51.898;-0.874;2024-02-15T10:11:57;3.30;;;1.55;;
46014;SDS011;36844;51.898;-0.874;2024-02-15T10:14:24;4.20;;;1.38;;
46014;SDS011;36844;51.898;-0.874;2024-02-15T10:16:51;4.55;;;1.52;;
46014;SDS011;36844;51.898;-0.874;2024-02-15T10:19:18;3.78;;;1.80;;
46014;SDS011;36844;51.898;-0.874;2024-02-15T10:21:45;6.97;;;1.80;;
46014;SDS011;36844;51.898;-0.874;2024-02-15T10:24:11;10.30;;;1.77;;
46014;SDS011;36844;51.898;-0.874;2024-02-15T10:26:36;2.65;;;1.08;;
46014;SDS011;36844;51.898;-0.874;2024-02-15T10:29:05;3.03;;;1.08;;
46014;SDS011;36844;51.898;-0.874;2024-02-15T10:31:33;2.90;;;1.27;;
46014;SDS011;36844;51.898;-0.874;2024-02-15T10:34:04;5.15;;;1.58;;
46014;SDS011;36844;51.898;-0.874;2024-02-15T10:36:31;6.57;;;2.55;;
46014;SDS011;36844;51.898;-0.874;2024-02-15T10:39:12;5.55;;;2.83;;
46014;SDS011;36844;51.898;-0.874;2024-02-15T10:41:53;5.85;;;2.42;;
46014;SDS011;36844;51.898;-0.874;2024-02-15T10:44:23;7.43;;;3.30;;
46014;SDS011;36844;51.898;-0.874;2024-02-15T10:46:53;5.93;;;3.33;;
46014;SDS011;36844;51.898;-0.874;2024-02-15T10:49:23;4.63;;;2.97;;
46014;SDS011;36844;51.898;-0.874;2024-02-15T10:51:55;7.90;;;3.50;;
46014;SDS011;36844;51.898;-0.874;2024-02-15T10:55:08;6.30;;;2.90;;
46014;SDS011;36844;51.898;-0.874;2024-02-15T10:57:12;5.75;;;2.40;;
46014;SDS011;36844;51.898;-0.874;2024-02-15T10:59:42;4.82;;;2.67;;
46014;SDS011;36844;51.898;-0.874;2024-02-15T11:02:19;3.07;;;2.20;;
46014;SDS011;36844;51.898;-0.874;2024-02-15T11:04:52;5.85;;;2.30;;
46014;SDS011;36844;51.898;-0.874;2024-02-15T11:07:25;4.40;;;2.25;;
46014;SDS011;36844;51.898;-0.874;2024-02-15T11:09:54;5.88;;;2.38;;
46014;SDS011;36844;51.898;-0.874;2024-02-15T11:12:23;4.22;;;2.13;;
46014;SDS011;36844;51.898;-0.874;2024-02-15T11:14:53;3.53;;;1.90;;
46014;SDS011;36844;51.898;-0.874;2024-02-15T11:17:44;4.05;;;2.22;;
46014;SDS011;36844;51.898;-0.874;2024-02-15T11:20:05;3.47;;;2.30;;
46014;SDS011;36844;51.898;-0.874;2024-02-15T11:22:36;3.88;;;1.80;;
46014;SDS011;36844;51.898;-0.874;2024-02-15T11:25:05;6.20;;;1.92;;
46014;SDS011;36844;51.898;-0.874;2024-02-15T11:27:36;3.22;;;2.00;;
46014;SDS011;36844;51.898;-0.874;2024-02-15T11:30:03;4.75;;;1.92;;
46014;SDS011;36844;51.898;-0.874;2024-02-15T11:35:09;4.38;;;2.50;;
46014;SDS011;36844;51.898;-0.874;2024-02-15T11:37:51;3.72;;;2.05;;
46014;SDS011;36844;51.898;-0.874;2024-02-15T11:43:09;3.72;;;1.48;;
46014;SDS011;36844;51.898;-0.874;2024-02-15T11:45:36;3.78;;;1.65;;
46014;SDS011;36844;51.898;-0.874;2024-02-15T11:48:10;4.38;;;1.80;;
46014;SDS011;36844;51.898;-0.874;2024-02-15T11:50:37;4.30;;;1.98;;
46014;SDS011;36844;51.898;-0.874;2024-02-15T11:53:04;4.32;;;1.90;;
46014;SDS011;36844;51.898;-0.874;2024-02-15T11:55:31;2.20;;;1.45;;
46014;SDS011;36844;51.898;-0.874;2024-02-15T11:57:58;3.85;;;1.42;;
46014;SDS011;36844;51.898;-0.874;2024-02-15T12:00:30;3.30;;;1.45;;
46014;SDS011;36844;51.898;-0.874;2024-02-15T12:03:15;7.47;;;2.13;;
46014;SDS011;36844;51.898;-0.874;2024-02-15T12:06:00;3.63;;;1.27;;
46014;SDS011;36844;51.898;-0.874;2024-02-15T12:08:45;3.08;;;1.70;;
46014;SDS011;36844;51.898;-0.874;2024-02-15T12:11:29;5.45;;;1.60;;
46014;SDS011;36844;51.898;-0.874;2024-02-15T12:14:14;2.78;;;1.40;;
46014;SDS011;36844;51.898;-0.874;2024-02-15T12:17:01;4.57;;;1.50;;
46014;SDS011;36844;51.898;-0.874;2024-02-15T12:19:56;6.43;;;1.58;;
46014;SDS011;36844;51.898;-0.874;2024-02-15T12:22:32;5.32;;;1.95;;
46014;SDS011;36844;51.898;-0.874;2024-02-15T12:25:05;3.95;;;1.40;;
46014;SDS011;36844;51.898;-0.874;2024-02-15T12:27:42;6.10;;;2.17;;
46014;SDS011;36844;51.898;-0.874;2024-02-15T12:30:15;2.92;;;1.40;;
46014;SDS011;36844;51.898;-0.874;2024-02-15T12:32:48;4.72;;;1.17;;
46014;SDS011;36844;51.898;-0.874;2024-02-15T12:35:15;3.25;;;1.63;;
46014;SDS011;36844;51.898;-0.874;2024-02-15T12:40:29;4.50;;;1.40;;
46014;SDS011;36844;51.898;-0.874;2024-02-15T12:42:59;10.32;;;2.03;;
46014;SDS011;36844;51.898;-0.874;2024-02-15T12:45:25;4.97;;;1.60;;
46014;SDS011;36844;51.898;-0.874;2024-02-15T12:47:54;2.45;;;1.35;;
46014;SDS011;36844;51.898;-0.874;2024-02-15T12:50:21;1.67;;;1.00;;
46014;SDS011;36844;51.898;-0.874;2024-02-15T12:52:51;1.98;;;1.25;;
46014;SDS011;36844;51.898;-0.874;2024-02-15T12:55:19;3.25;;;1.42;;
46014;SDS011;36844;51.898;-0.874;2024-02-15T12:57:47;4.75;;;1.60;;
46014;SDS011;36844;51.898;-0.874;2024-02-15T13:00:23;1.85;;;1.20;;
46014;SDS011;36844;51.898;-0.874;2024-02-15T13:02:58;1.40;;;0.90;;
46014;SDS011;36844;51.898;-0.874;2024-02-15T13:05:25;2.25;;;1.10;;
46014;SDS011;36844;51.898;-0.874;2024-02-15T13:07:52;2.42;;;0.85;;
46014;SDS011;36844;51.898;-0.874;2024-02-15T13:10:20;5.03;;;1.85;;
46014;SDS011;36844;51.898;-0.874;2024-02-15T13:12:46;3.28;;;1.88;;
46014;SDS011;36844;51.898;-0.874;2024-02-15T13:15:12;3.33;;;1.88;;
46014;SDS011;36844;51.898;-0.874;2024-02-15T13:17:49;3.47;;;1.40;;
46014;SDS011;36844;51.898;-0.874;2024-02-15T13:20:19;3.50;;;1.65;;
46014;SDS011;36844;51.898;-0.874;2024-02-15T13:22:45;2.38;;;1.38;;
46014;SDS011;36844;51.898;-0.874;2024-02-15T13:25:15;4.13;;;1.50;;
46014;SDS011;36844;51.898;-0.874;2024-02-15T13:27:46;6.80;;;1.42;;
46014;SDS011;36844;51.898;-0.874;2024-02-15T13:30:11;5.43;;;1.20;;
46014;SDS011;36844;51.898;-0.874;2024-02-15T13:32:38;5.15;;;1.17;;
46014;SDS011;36844;51.898;-0.874;2024-02-15T13:35:06;4.72;;;1.58;;
46014;SDS011;36844;51.898;-0.874;2024-02-15T13:37:55;2.78;;;1.55;;
46014;SDS011;36844;51.898;-0.874;2024-02-15T13:40:24;2.30;;;1.13;;
46014;SDS011;36844;51.898;-0.874;2024-02-15T13:42:55;2.50;;;1.23;;
46014;SDS011;36844;51.898;-0.874;2024-02-15T13:47:49;5.07;;;1.48;;
46014;SDS011;36844;51.898;-0.874;2024-02-15T13:50:15;4.25;;;1.40;;
46014;SDS011;36844;51.898;-0.874;2024-02-15T13:52:42;2.33;;;1.50;;
46014;SDS011;36844;51.898;-0.874;2024-02-15T13:55:15;3.90;;;1.60;;
46014;SDS011;36844;51.898;-0.874;2024-02-15T13:57:42;5.05;;;1.52;;
46014;SDS011;36844;51.898;-0.874;2024-02-15T14:00:08;3.00;;;1.63;;
46014;SDS011;36844;51.898;-0.874;2024-02-15T14:02:40;2.30;;;1.25;;
46014;SDS011;36844;51.898;-0.874;2024-02-15T14:05:06;2.97;;;2.05;;
46014;SDS011;36844;51.898;-0.874;2024-02-15T14:07:34;5.13;;;1.20;;
46014;SDS011;36844;51.898;-0.874;2024-02-15T14:10:01;2.92;;;1.80;;
46014;SDS011;36844;51.898;-0.874;2024-02-15T14:12:27;4.65;;;1.42;;
46014;SDS011;36844;51.898;-0.874;2024-02-15T14:14:52;3.65;;;1.20;;
46014;SDS011;36844;51.898;-0.874;2024-02-15T14:17:17;3.72;;;1.58;;
46014;SDS011;36844;51.898;-0.874;2024-02-15T14:19:43;13.93;;;3.25;;
46014;SDS011;36844;51.898;-0.874;2024-02-15T14:22:08;11.05;;;1.67;;
46014;SDS011;36844;51.898;-0.874;2024-02-15T14:24:34;5.03;;;1.58;;
46014;SDS011;36844;51.898;-0.874;2024-02-15T14:26:59;9.50;;;1.92;;
46014;SDS011;36844;51.898;-0.874;2024-02-15T14:29:25;9.20;;;2.03;;
46014;SDS011;36844;51.898;-0.874;2024-02-15T14:31:54;15.05;;;1.48;;
46014;SDS011;36844;51.898;-0.874;2024-02-15T14:34:38;5.63;;;1.70;;
46014;SDS011;36844;51.898;-0.874;2024-02-15T14:37:03;10.38;;;1.70;;
46014;SDS011;36844;51.898;-0.874;2024-02-15T14:39:31;8.82;;;2.28;;
46014;SDS011;36844;51.898;-0.874;2024-02-15T14:41:56;8.73;;;1.58;;
46014;SDS011;36844;51.898;-0.874;2024-02-15T14:44:21;5.20;;;2.00;;
46014;SDS011;36844;51.898;-0.874;2024-02-15T14:46:48;10.82;;;1.80;;
46014;SDS011;36844;51.898;-0.874;2024-02-15T14:49:13;4.30;;;1.55;;
46014;SDS011;36844;51.898;-0.874;2024-02-15T14:51:39;3.88;;;1.52;;
46014;SDS011;36844;51.898;-0.874;2024-02-15T14:54:04;8.07;;;1.42;;